Harmonyville, Vermont
Current Conditions -  °F | °C
As of 9:54 AM on Wednesday 26 Nov 2014 (Local Time) from KVSF Reporting Station
Overcast Overcast  
Wind Chill: 31°   Ceiling: 8500
Heat Index: 36°   Visibility: 10mi
Dew Point: 21°   Wind: 6mph
Humidity: 55%   Direction: NA
Pressure: 30.17"   Gusts: NA
Location:  43.0642°N, 72.6668°W
Report Text: KVSF 261454Z AUTO VRB05KT 10SM FEW065 OVC085 02/M06 A3017 RMK AO2 SLP225 T00221061 58006
Loading
Personal Weather Stations






























Interactive Weather Map New forecast layout! Learn more

10-Day Weather Forecast

Advertisements
Track Severe Weather on mobile